KTEB/TEB METAR and TAF weather

Enter ICAO airport designator
Station Type Date Time Source
KTEB METAR 2018/12/19 08:51 UTC NOAA

KTEB 190851Z 00000KT 10SM CLR M03/M09 A3015 RMK AO2 SLP209 T10331089 50004


Station Type Date Time Source
KTEB Decoded METAR 2018/12/19 08:51 UTC NOAA

TETERBORO AIRPORT, NJ, United States (KTEB) 40-52N 74-03W 7M
Dec 19, 2018 - 03:51 AM EST / 2018.12.19 0851 UTC
Wind: Calm:0
Visibility: 10 mile(s):0
Sky conditions: clear
Temperature: 26.1 F (-3.3 C)
Dew Point: 16.0 F (-8.9 C)
Relative Humidity: 65%
Pressure (altimeter): 30.15 in. Hg (1020 hPa)
Pressure tendency: 0.01 inches (0.4 hPa) higher than three hours ago
ob: KTEB 190851Z 00000KT 10SM CLR M03/M09 A3015 RMK AO2 SLP209 T10331089 50004
cycle: 9

Station Type Date Time Source
KTEB TAF 2018/12/19 09:40 UTC NOAA

TAF
AMD KTEB 190837Z 1909/2012 VRB02KT P6SM FEW250
FM191600 24006KT P6SM BKN250
FM192100 21006KT P6SM BKN250
FM200600 VRB03KT P6SM SCT250


Example: see airport list